Time;durP1;ratioP1;P1;durP2;ratioP2;P2;SDS_P1;SDS_P2;PMS_P1;PMS_P2;Temp;Humidity;BMP_temperature;BMP_pressure;BME280_temperature;BME280_humidity;BME280_pressure;Samples;Min_cycle;Max_cycle;Signal;HPM_P1;HPM_P2
2022/07/28 00:00:32;;;;;;;4.38;1.00;;;15.70;99.90;;;;;;4870231;29;38701;-80
2022/07/28 00:02:59;;;;;;;5.07;1.10;;;15.70;99.90;;;;;;4869924;29;40194;-79
2022/07/28 00:05:25;;;;;;;3.47;0.90;;;15.70;99.90;;;;;;4854685;29;36072;-80
2022/07/28 00:07:52;;;;;;;3.78;1.10;;;15.70;99.90;;;;;;4870465;29;38941;-78
2022/07/28 00:10:18;;;;;;;2.58;0.80;;;15.70;99.90;;;;;;4862202;29;39703;-79
2022/07/28 00:12:44;;;;;;;2.92;1.20;;;15.60;99.90;;;;;;4871901;29;38055;-79
2022/07/28 00:15:11;;;;;;;1.77;0.55;;;15.60;99.90;;;;;;4865451;29;38156;-78
2022/07/28 00:17:37;;;;;;;4.20;0.77;;;15.60;99.90;;;;;;4867413;29;37676;-80
2022/07/28 00:20:05;;;;;;;3.17;1.00;;;15.50;99.90;;;;;;4851124;29;38846;-80
2022/07/28 00:22:31;;;;;;;3.33;0.85;;;15.50;99.90;;;;;;4867687;29;47849;-79
2022/07/28 00:24:57;;;;;;;5.78;0.80;;;15.50;99.90;;;;;;4869327;29;35286;-79
2022/07/28 00:27:23;;;;;;;2.25;0.65;;;15.50;99.90;;;;;;4852627;29;38996;-79
2022/07/28 00:29:50;;;;;;;2.95;1.08;;;15.40;99.90;;;;;;4870597;29;38920;-79
2022/07/28 00:32:16;;;;;;;2.55;0.80;;;15.40;99.90;;;;;;4847138;29;37252;-80
2022/07/28 00:34:42;;;;;;;4.43;1.30;;;15.30;99.90;;;;;;4869107;29;37900;-80
2022/07/28 00:37:08;;;;;;;3.55;1.00;;;15.30;99.90;;;;;;4867076;29;38398;-80
2022/07/28 00:39:34;;;;;;;4.18;1.00;;;15.30;99.90;;;;;;4864265;29;39387;-79
2022/07/28 00:42:01;;;;;;;3.92;1.10;;;15.30;99.90;;;;;;4862354;29;39238;-80
2022/07/28 00:44:27;;;;;;;1.92;0.80;;;15.20;99.90;;;;;;4864378;29;47587;-80
2022/07/28 00:46:53;;;;;;;3.33;0.93;;;15.20;99.90;;;;;;4853207;29;37883;-79
2022/07/28 00:49:19;;;;;;;5.25;1.08;;;15.20;99.90;;;;;;4853057;29;38202;-79
2022/07/28 00:51:46;;;;;;;2.50;0.80;;;15.20;99.90;;;;;;4866251;29;38453;-81
2022/07/28 00:54:12;;;;;;;1.45;0.95;;;15.10;99.90;;;;;;4847871;29;36323;-79
2022/07/28 00:56:38;;;;;;;4.80;0.90;;;15.10;99.90;;;;;;4849414;29;38649;-79
2022/07/28 00:59:05;;;;;;;1.88;0.98;;;15.20;99.90;;;;;;4853026;29;38097;-80
2022/07/28 01:01:31;;;;;;;5.55;0.70;;;15.10;99.90;;;;;;4853653;29;37652;-80
2022/07/28 01:04:00;;;;;;;2.28;0.70;;;15.10;99.90;;;;;;4869050;29;38226;-80
2022/07/28 01:06:45;;;;;;;8.40;1.17;;;15.00;99.90;;;;;;4848461;29;37473;-79
2022/07/28 01:09:31;;;;;;;3.97;0.98;;;15.00;99.90;;;;;;4848401;29;38181;-79
2022/07/28 01:12:23;;;;;;;3.33;0.80;;;15.00;99.90;;;;;;4830198;29;37601;-78
2022/07/28 01:14:57;;;;;;;4.13;0.77;;;15.00;99.90;;;;;;4839754;29;47489;-79
2022/07/28 01:18:01;;;;;;;1.92;0.75;;;15.00;99.90;;;;;;4866850;29;38576;-78
2022/07/28 01:20:42;;;;;;;2.70;0.90;;;14.90;99.90;;;;;;4850932;29;48185;-80
2022/07/28 01:23:10;;;;;;;2.13;0.63;;;14.90;99.90;;;;;;4870019;29;39092;-78
2022/07/28 01:26:15;;;;;;;4.03;0.95;;;14.90;99.90;;;;;;4857824;29;36026;-79
2022/07/28 01:28:41;;;;;;;2.67;1.02;;;14.90;99.90;;;;;;4847119;29;46936;-79
2022/07/28 01:31:15;;;;;;;1.65;0.88;;;14.90;99.90;;;;;;4854772;29;38570;-80
2022/07/28 01:33:47;;;;;;;4.60;0.90;;;14.90;99.90;;;;;;4849267;29;38502;-79
2022/07/28 01:36:17;;;;;;;1.27;0.77;;;14.90;99.90;;;;;;4854946;29;37158;-79
2022/07/28 01:38:46;;;;;;;3.42;1.02;;;14.80;99.90;;;;;;4867292;29;39619;-78
2022/07/28 01:41:21;;;;;;;3.58;0.75;;;14.90;99.90;;;;;;4855250;29;37991;-78
2022/07/28 01:43:55;;;;;;;4.32;1.23;;;14.90;99.90;;;;;;4852910;29;38338;-78
2022/07/28 01:46:23;;;;;;;4.20;1.02;;;14.90;99.90;;;;;;4867102;29;38370;-79
2022/07/28 01:48:50;;;;;;;1.83;0.77;;;14.90;99.90;;;;;;4867670;29;39453;-80
2022/07/28 01:51:18;;;;;;;4.75;0.90;;;14.90;99.90;;;;;;4869703;29;41105;-79
2022/07/28 01:53:46;;;;;;;1.70;0.88;;;14.90;99.90;;;;;;4851540;29;38752;-80
2022/07/28 01:56:14;;;;;;;5.45;1.27;;;14.90;99.90;;;;;;4868211;29;36060;-81
2022/07/28 01:58:43;;;;;;;2.42;0.98;;;14.90;99.90;;;;;;4864987;29;39138;-79
2022/07/28 02:01:10;;;;;;;2.53;0.82;;;14.90;99.90;;;;;;4866440;29;39110;-80
2022/07/28 02:03:38;;;;;;;2.70;1.15;;;14.90;99.90;;;;;;4851434;29;37300;-79
2022/07/28 02:06:06;;;;;;;2.08;0.75;;;14.90;99.90;;;;;;4870490;29;37713;-77
2022/07/28 02:08:34;;;;;;;2.47;0.90;;;14.90;99.90;;;;;;4854945;29;38904;-79
2022/07/28 02:13:49;;;;;;;5.68;1.00;;;14.90;99.90;;;;;;4863891;29;49486;-80
2022/07/28 02:16:17;;;;;;;3.85;0.95;;;14.90;99.90;;;;;;4862075;29;37103;-80
2022/07/28 02:18:45;;;;;;;3.78;1.02;;;14.90;99.90;;;;;;4848700;29;38733;-80
2022/07/28 02:21:12;;;;;;;3.38;1.00;;;14.80;99.90;;;;;;4865556;29;38969;-79
2022/07/28 02:23:41;;;;;;;3.20;1.20;;;14.80;99.90;;;;;;4846749;29;38038;-81
2022/07/28 02:26:09;;;;;;;5.70;1.25;;;14.80;99.90;;;;;;4852377;29;35962;-80
2022/07/28 02:28:37;;;;;;;2.65;0.90;;;14.70;99.90;;;;;;4871005;29;38679;-80
2022/07/28 02:31:31;;;;;;;3.38;1.13;;;14.70;99.90;;;;;;4864058;29;38948;-78
2022/07/28 02:34:01;;;;;;;4.18;1.10;;;14.70;99.90;;;;;;4861872;29;37225;-80
2022/07/28 02:36:31;;;;;;;5.40;1.10;;;14.60;99.90;;;;;;4860492;29;47869;-82
2022/07/28 02:39:06;;;;;;;5.82;1.23;;;14.60;99.90;;;;;;4868254;29;37765;-80
2022/07/28 02:41:37;;;;;;;3.20;1.25;;;14.50;99.90;;;;;;4866611;29;49151;-79
2022/07/28 02:44:16;;;;;;;4.25;1.00;;;14.50;99.90;;;;;;4847143;29;37113;-79
2022/07/28 02:46:50;;;;;;;2.05;0.70;;;14.50;99.90;;;;;;4850331;29;35998;-78
2022/07/28 02:49:22;;;;;;;3.75;1.05;;;14.50;99.90;;;;;;4851391;29;37869;-81
2022/07/28 02:51:51;;;;;;;2.03;1.10;;;14.40;99.90;;;;;;4865724;29;39969;-80
2022/07/28 02:54:19;;;;;;;5.00;1.27;;;14.40;99.90;;;;;;4868477;29;38203;-79
2022/07/28 02:56:47;;;;;;;5.60;1.20;;;14.40;99.90;;;;;;4867764;29;38167;-81
2022/07/28 02:59:14;;;;;;;3.50;1.10;;;14.40;99.90;;;;;;4863727;29;38933;-79
2022/07/28 03:01:42;;;;;;;4.65;1.40;;;14.40;99.90;;;;;;4866262;29;38883;-80
2022/07/28 03:04:09;;;;;;;1.30;0.80;;;14.30;99.90;;;;;;4861361;29;38532;-82
2022/07/28 03:06:36;;;;;;;2.95;1.35;;;14.30;99.90;;;;;;4864941;29;36837;-78
2022/07/28 03:09:02;;;;;;;4.50;1.00;;;14.20;99.90;;;;;;4849768;29;38149;-80
2022/07/28 03:11:28;;;;;;;2.30;1.10;;;14.20;99.90;;;;;;4851541;29;37767;-78
2022/07/28 03:13:54;;;;;;;3.55;0.88;;;14.20;99.90;;;;;;4853152;29;37073;-79
2022/07/28 03:16:20;;;;;;;1.55;0.80;;;14.20;99.90;;;;;;4849711;29;36683;-83
2022/07/28 03:18:46;;;;;;;2.38;0.98;;;14.20;99.90;;;;;;4850986;29;37858;-80
2022/07/28 03:21:13;;;;;;;7.70;1.20;;;14.20;99.90;;;;;;4849403;29;37824;-80
2022/07/28 03:23:46;;;;;;;4.25;1.10;;;14.10;99.90;;;;;;4849175;29;38701;-79
2022/07/28 03:26:39;;;;;;;3.38;1.30;;;14.10;99.90;;;;;;4864703;29;37609;-79
2022/07/28 03:29:09;;;;;;;4.50;1.10;;;14.00;99.90;;;;;;4848927;29;38428;-79
2022/07/28 03:31:38;;;;;;;6.82;1.27;;;14.00;99.90;;;;;;4871042;29;39016;-80
2022/07/28 03:34:05;;;;;;;2.47;1.05;;;14.00;99.90;;;;;;4860683;29;37243;-79
2022/07/28 03:36:38;;;;;;;4.78;0.70;;;13.90;99.90;;;;;;4858476;29;36372;-79
2022/07/28 03:39:10;;;;;;;3.85;1.00;;;14.00;99.90;;;;;;4851322;29;39295;-79
2022/07/28 03:41:41;;;;;;;2.90;1.13;;;14.00;99.90;;;;;;4871309;29;39557;-80
2022/07/28 03:44:09;;;;;;;4.47;1.02;;;14.00;99.90;;;;;;4872874;29;38450;-80
2022/07/28 03:46:41;;;;;;;2.15;0.95;;;13.90;99.90;;;;;;4861198;29;37147;-80
2022/07/28 03:49:07;;;;;;;7.28;1.25;;;13.90;99.90;;;;;;4870205;29;38837;-79
2022/07/28 03:51:33;;;;;;;5.43;1.13;;;13.90;99.90;;;;;;4873815;29;38463;-78
2022/07/28 03:54:00;;;;;;;5.68;1.42;;;13.80;99.90;;;;;;4859421;29;38315;-78
2022/07/28 03:56:26;;;;;;;5.05;1.15;;;13.90;99.90;;;;;;4872561;29;37962;-79
2022/07/28 03:58:52;;;;;;;2.22;0.98;;;13.80;99.90;;;;;;4872605;29;38265;-78
2022/07/28 04:01:18;;;;;;;4.50;1.10;;;13.80;99.90;;;;;;4872214;29;39329;-79
2022/07/28 04:03:44;;;;;;;4.28;1.20;;;13.80;99.90;;;;;;4872805;29;39124;-79
2022/07/28 04:06:11;;;;;;;4.18;1.70;;;13.80;99.90;;;;;;4854415;29;35699;-77
2022/07/28 04:08:37;;;;;;;3.17;1.20;;;13.80;99.90;;;;;;4876240;29;38653;-78
2022/07/28 04:11:03;;;;;;;4.45;1.10;;;13.80;99.90;;;;;;4855425;29;37974;-78
2022/07/28 04:13:30;;;;;;;4.80;1.20;;;13.80;99.90;;;;;;4873921;29;37853;-78
2022/07/28 04:15:57;;;;;;;3.58;1.80;;;13.80;99.90;;;;;;4868839;29;38190;-78
2022/07/28 04:18:23;;;;;;;2.55;1.30;;;13.80;99.90;;;;;;4870571;29;38714;-79
2022/07/28 04:20:49;;;;;;;2.13;0.90;;;13.80;99.90;;;;;;4854070;29;39561;-78
2022/07/28 04:23:17;;;;;;;5.70;1.63;;;13.80;99.90;;;;;;4857917;29;37467;-78
2022/07/28 04:25:43;;;;;;;4.00;1.02;;;13.80;99.90;;;;;;4851001;29;36344;-78
2022/07/28 04:28:09;;;;;;;1.70;0.70;;;13.80;99.90;;;;;;4859470;29;40427;-79
2022/07/28 04:30:35;;;;;;;3.97;1.17;;;13.80;99.90;;;;;;4853853;29;39019;-78
2022/07/28 04:33:02;;;;;;;3.15;1.10;;;13.80;99.90;;;;;;4855305;29;37818;-80
2022/07/28 04:35:28;;;;;;;3.47;1.00;;;13.80;99.90;;;;;;4856501;29;37752;-79
2022/07/28 04:37:57;;;;;;;2.65;1.05;;;13.80;99.90;;;;;;4859741;29;37466;-80
2022/07/28 04:40:25;;;;;;;2.95;1.20;;;13.80;99.90;;;;;;4871109;29;39864;-77
2022/07/28 04:42:51;;;;;;;3.65;1.27;;;13.90;99.90;;;;;;4854026;29;38551;-77
2022/07/28 04:45:17;;;;;;;4.78;1.30;;;13.90;99.90;;;;;;4864615;29;37913;-79
2022/07/28 04:47:43;;;;;;;4.22;1.20;;;13.90;99.90;;;;;;4866419;29;39332;-79
2022/07/28 04:50:13;;;;;;;6.43;1.33;;;14.00;99.90;;;;;;4847314;29;39214;-78
2022/07/28 04:52:40;;;;;;;4.22;1.10;;;14.00;99.90;;;;;;4867561;29;38616;-78
2022/07/28 04:55:07;;;;;;;6.65;1.42;;;14.00;99.90;;;;;;4852956;29;36618;-77
2022/07/28 04:57:33;;;;;;;2.92;1.05;;;14.10;99.90;;;;;;4868484;29;38175;-77
2022/07/28 05:00:00;;;;;;;4.35;1.13;;;14.10;99.90;;;;;;4867989;29;37732;-77
2022/07/28 05:02:26;;;;;;;2.58;1.05;;;14.10;99.90;;;;;;4868127;29;38337;-78
2022/07/28 05:04:52;;;;;;;2.80;0.95;;;14.00;99.90;;;;;;4852218;29;36867;-77
2022/07/28 05:07:19;;;;;;;4.90;1.20;;;14.10;99.90;;;;;;4870146;29;38611;-77
2022/07/28 05:09:45;;;;;;;4.20;1.33;;;14.10;99.90;;;;;;4853308;29;37832;-79
2022/07/28 05:12:11;;;;;;;3.75;1.05;;;14.10;99.90;;;;;;4853942;29;38363;-79
2022/07/28 05:14:38;;;;;;;2.55;0.95;;;14.10;99.90;;;;;;4856557;29;36354;-79
2022/07/28 05:17:04;;;;;;;4.68;1.25;;;14.10;99.90;;;;;;4870882;29;37706;-78
2022/07/28 05:19:30;;;;;;;3.55;1.00;;;14.20;99.90;;;;;;4847568;29;37883;-81
2022/07/28 05:21:56;;;;;;;1.55;1.13;;;14.20;99.90;;;;;;4849202;29;37560;-78
2022/07/28 05:24:22;;;;;;;3.38;1.15;;;14.30;99.90;;;;;;4869817;29;37149;-78
2022/07/28 05:26:48;;;;;;;3.15;1.10;;;14.30;99.90;;;;;;4872957;29;38934;-80
2022/07/28 05:29:14;;;;;;;2.70;1.10;;;14.40;99.90;;;;;;4868891;29;40027;-78
2022/07/28 05:31:40;;;;;;;5.43;1.13;;;14.40;99.90;;;;;;4870107;29;39182;-78
2022/07/28 05:34:07;;;;;;;3.83;1.10;;;14.50;99.90;;;;;;4869464;29;36234;-78
2022/07/28 05:36:34;;;;;;;4.40;0.93;;;14.50;99.90;;;;;;4890172;29;39386;-79
2022/07/28 05:39:00;;;;;;;3.53;1.00;;;14.60;99.90;;;;;;4876513;29;39256;-80
2022/07/28 05:41:26;;;;;;;4.47;1.35;;;14.60;99.90;;;;;;4866067;29;41059;-78
2022/07/28 05:43:52;;;;;;;6.50;1.20;;;14.60;99.90;;;;;;4857047;29;36427;-78
2022/07/28 05:46:18;;;;;;;5.03;1.40;;;14.60;99.90;;;;;;4851551;29;38957;-80
2022/07/28 05:48:45;;;;;;;1.73;1.10;;;14.70;99.90;;;;;;4844712;29;38741;-78
2022/07/28 05:51:11;;;;;;;7.22;1.40;;;14.70;99.90;;;;;;4851010;29;37733;-78
2022/07/28 05:53:37;;;;;;;1.90;1.10;;;14.80;99.90;;;;;;4866140;29;37601;-78
2022/07/28 05:56:03;;;;;;;2.58;1.02;;;14.80;99.90;;;;;;4861641;29;38472;-77
2022/07/28 05:58:30;;;;;;;5.07;1.20;;;14.80;99.90;;;;;;4865129;29;37757;-78
2022/07/28 06:01:02;;;;;;;5.10;1.30;;;14.90;99.90;;;;;;4851028;29;37339;-78
2022/07/28 06:03:31;;;;;;;3.80;1.40;;;14.90;99.90;;;;;;4864451;29;48867;-78
2022/07/28 06:05:57;;;;;;;3.92;1.17;;;14.90;99.90;;;;;;4851575;29;38822;-77
2022/07/28 06:08:23;;;;;;;3.00;1.30;;;15.00;99.90;;;;;;4869816;29;38981;-77
2022/07/28 06:11:01;;;;;;;6.90;1.00;;;15.10;99.90;;;;;;4863786;29;37570;-77
2022/07/28 06:13:28;;;;;;;5.03;1.30;;;15.30;99.90;;;;;;4847958;29;47227;-77
2022/07/28 06:15:54;;;;;;;3.60;1.30;;;15.40;99.90;;;;;;4870694;29;38447;-77
2022/07/28 06:18:23;;;;;;;5.70;1.20;;;15.40;99.90;;;;;;4865175;29;39204;-78
2022/07/28 06:20:49;;;;;;;2.95;0.98;;;15.40;99.90;;;;;;4867241;29;38807;-77
2022/07/28 06:23:19;;;;;;;5.07;0.95;;;15.20;99.90;;;;;;4866529;29;36282;-78
2022/07/28 06:25:45;;;;;;;3.63;1.63;;;15.30;99.90;;;;;;4850258;29;39342;-77
2022/07/28 06:28:11;;;;;;;5.50;1.17;;;15.60;99.90;;;;;;4852012;29;37562;-77
2022/07/28 06:30:37;;;;;;;6.30;1.30;;;15.90;99.90;;;;;;4849029;29;38751;-78
2022/07/28 06:33:06;;;;;;;5.03;1.23;;;16.20;99.90;;;;;;4851011;29;38792;-77
2022/07/28 06:35:33;;;;;;;4.82;1.20;;;16.40;99.90;;;;;;4868535;29;38936;-77
2022/07/28 06:37:59;;;;;;;4.50;1.23;;;16.80;99.90;;;;;;4864276;29;40036;-77
2022/07/28 06:40:25;;;;;;;4.88;1.10;;;17.10;99.90;;;;;;4868675;29;38096;-77
2022/07/28 06:42:51;;;;;;;5.63;1.42;;;17.40;99.90;;;;;;4869571;29;37056;-77
2022/07/28 06:45:18;;;;;;;3.13;1.15;;;17.60;99.90;;;;;;4849903;29;38871;-77
2022/07/28 06:47:45;;;;;;;2.53;0.85;;;17.60;99.90;;;;;;4857123;29;41049;-78
2022/07/28 06:50:11;;;;;;;3.53;1.02;;;17.60;99.90;;;;;;4847670;29;40463;-78
2022/07/28 06:52:37;;;;;;;3.42;1.40;;;17.70;99.90;;;;;;4863370;29;37115;-79
2022/07/28 06:55:04;;;;;;;5.78;1.30;;;17.90;99.90;;;;;;4849338;29;37502;-78
2022/07/28 06:57:32;;;;;;;3.72;1.10;;;18.20;99.90;;;;;;4868451;29;47860;-80
2022/07/28 07:00:14;;;;;;;;;;;;;;;;;;;;;
2022/07/28 07:02:41;;;;;;;5.47;1.10;;;17.40;99.90;;;;;;4848291;29;49014;-81
2022/07/28 07:05:08;;;;;;;4.05;1.00;;;17.10;99.90;;;;;;4864838;29;38806;-80
2022/07/28 07:07:35;;;;;;;4.53;1.10;;;16.90;99.90;;;;;;4846089;29;38262;-82
2022/07/28 07:10:03;;;;;;;4.05;1.20;;;16.90;99.90;;;;;;4850853;29;40153;-82
2022/07/28 07:12:32;;;;;;;4.10;1.20;;;17.10;99.90;;;;;;4848845;29;36396;-82
2022/07/28 07:14:58;;;;;;;3.67;1.02;;;17.40;99.90;;;;;;4864504;29;38990;-76
2022/07/28 07:17:24;;;;;;;3.92;1.75;;;17.70;99.90;;;;;;4863840;29;38717;-79
2022/07/28 07:19:50;;;;;;;4.78;0.82;;;18.10;99.90;;;;;;4850412;29;37455;-75
2022/07/28 07:22:16;;;;;;;5.88;0.95;;;18.30;99.90;;;;;;4871049;29;37343;-76
2022/07/28 07:24:42;;;;;;;4.68;1.00;;;18.30;99.90;;;;;;4855435;29;38520;-78
2022/07/28 07:27:08;;;;;;;2.05;0.80;;;18.20;99.90;;;;;;4858550;29;41293;-77
2022/07/28 07:29:35;;;;;;;3.47;0.93;;;18.40;99.90;;;;;;4865434;29;39593;-77
2022/07/28 07:32:01;;;;;;;2.33;0.68;;;18.30;99.90;;;;;;4844793;29;40573;-83
2022/07/28 07:34:27;;;;;;;3.85;0.88;;;18.50;99.90;;;;;;4852038;29;47441;-75
2022/07/28 07:36:53;;;;;;;4.63;1.20;;;18.90;99.90;;;;;;4869076;29;38893;-74
2022/07/28 07:39:20;;;;;;;3.95;0.70;;;19.10;99.90;;;;;;4850814;29;20132;-80
2022/07/28 07:41:47;;;;;;;4.38;0.80;;;19.30;99.90;;;;;;4849042;29;36219;-76
2022/07/28 07:44:13;;;;;;;3.60;0.93;;;19.40;99.90;;;;;;4867806;29;38840;-76
2022/07/28 07:46:39;;;;;;;2.38;0.73;;;19.30;99.90;;;;;;4849557;29;37731;-76
2022/07/28 07:49:05;;;;;;;2.70;0.57;;;19.40;99.90;;;;;;4849665;29;37427;-76
2022/07/28 07:51:31;;;;;;;3.80;0.70;;;19.50;99.90;;;;;;4867061;29;37022;-77
2022/07/28 07:53:57;;;;;;;2.63;0.85;;;19.50;99.90;;;;;;4853565;29;37645;-78
2022/07/28 07:56:23;;;;;;;2.22;0.73;;;19.50;99.90;;;;;;4846903;29;37546;-77
2022/07/28 07:58:50;;;;;;;2.05;0.70;;;19.50;99.90;;;;;;4866180;29;37712;-77
2022/07/28 08:01:16;;;;;;;3.38;0.80;;;19.60;99.90;;;;;;4864809;29;37548;-77
2022/07/28 08:03:43;;;;;;;2.90;0.80;;;19.60;99.90;;;;;;4853479;29;37598;-78
2022/07/28 08:06:09;;;;;;;3.47;1.00;;;19.80;99.90;;;;;;4867081;29;38402;-79
2022/07/28 08:08:36;;;;;;;3.13;0.80;;;19.80;99.90;;;;;;4854902;29;37407;-78
2022/07/28 08:11:02;;;;;;;2.60;0.70;;;19.70;99.90;;;;;;4865420;29;37392;-76
2022/07/28 08:13:28;;;;;;;2.67;1.10;;;19.70;99.90;;;;;;4864937;29;46212;-77
2022/07/28 08:15:54;;;;;;;2.97;0.60;;;19.70;99.90;;;;;;4856308;29;39700;-79
2022/07/28 08:18:20;;;;;;;34.22;2.03;;;20.00;99.90;;;;;;4850532;29;37717;-77
2022/07/28 08:20:47;;;;;;;15.98;1.65;;;19.90;99.90;;;;;;4855634;29;36087;-78
2022/07/28 08:23:13;;;;;;;2.28;0.75;;;19.80;99.90;;;;;;4851351;29;37911;-76
2022/07/28 08:25:39;;;;;;;1.85;0.45;;;20.10;99.90;;;;;;4871531;29;39351;-76
2022/07/28 08:28:05;;;;;;;1.42;0.55;;;20.50;99.90;;;;;;4866937;29;38595;-79
2022/07/28 08:30:31;;;;;;;2.80;0.60;;;20.80;99.90;;;;;;4871060;29;37251;-77
2022/07/28 08:32:57;;;;;;;2.80;0.80;;;21.00;99.90;;;;;;4858451;29;37629;-76
2022/07/28 08:35:24;;;;;;;2.38;0.70;;;20.80;99.90;;;;;;4856038;29;37732;-77
2022/07/28 08:37:50;;;;;;;2.78;0.63;;;20.90;99.90;;;;;;4883589;29;38745;-76
2022/07/28 08:40:16;;;;;;;2.38;0.60;;;20.80;99.90;;;;;;4880140;29;37669;-76
2022/07/28 08:43:16;;;;;;;1.83;0.73;;;20.50;99.90;;;;;;4871004;29;38359;-77
2022/07/28 08:45:47;;;;;;;1.42;0.60;;;20.70;99.90;;;;;;4839177;29;47260;-76
2022/07/28 08:48:15;;;;;;;1.13;0.52;;;20.60;99.90;;;;;;4867156;29;38047;-76
2022/07/28 08:50:43;;;;;;;4.40;0.70;;;20.90;99.90;;;;;;4843199;29;35879;-78
2022/07/28 08:53:09;;;;;;;3.60;0.80;;;21.10;99.90;;;;;;4863288;29;38694;-76
2022/07/28 08:55:36;;;;;;;1.65;0.65;;;21.50;99.90;;;;;;4851837;29;37974;-75
2022/07/28 08:58:03;;;;;;;2.58;0.90;;;21.70;99.90;;;;;;4845918;29;37190;-77
2022/07/28 09:00:29;;;;;;;1.92;0.60;;;22.00;99.90;;;;;;4864631;29;35838;-76
2022/07/28 09:02:55;;;;;;;1.40;0.60;;;21.50;99.90;;;;;;4858506;29;37811;-75
2022/07/28 09:05:22;;;;;;;6.60;1.10;;;21.20;99.90;;;;;;4854492;29;37987;-76
2022/07/28 09:07:50;;;;;;;3.53;0.90;;;21.10;99.90;;;;;;4857595;29;37512;-75
2022/07/28 09:10:17;;;;;;;4.53;0.80;;;21.10;99.90;;;;;;4856102;29;37242;-76
2022/07/28 09:12:44;;;;;;;4.25;0.60;;;21.30;99.90;;;;;;4853045;29;37273;-75
2022/07/28 09:15:12;;;;;;;2.05;0.65;;;21.50;99.90;;;;;;4864594;29;39554;-77
2022/07/28 09:17:40;;;;;;;3.60;1.00;;;21.50;99.90;;;;;;4865758;29;36649;-76
2022/07/28 09:20:07;;;;;;;2.03;0.70;;;21.70;99.90;;;;;;4860936;29;37201;-77
2022/07/28 09:22:35;;;;;;;1.90;0.60;;;21.90;99.90;;;;;;4853332;29;37706;-75
2022/07/28 09:25:02;;;;;;;1.67;0.70;;;22.20;99.90;;;;;;4864209;29;37994;-76
2022/07/28 09:27:43;;;;;;;2.53;0.50;;;21.90;99.90;;;;;;4869208;29;48792;-75
2022/07/28 09:30:09;;;;;;;2.70;0.93;;;22.10;99.90;;;;;;4855215;29;36086;-76
2022/07/28 09:32:36;;;;;;;3.35;0.77;;;22.10;99.90;;;;;;4847803;29;37434;-77
2022/07/28 09:35:02;;;;;;;0.77;0.50;;;21.70;99.90;;;;;;4842865;29;38544;-76
2022/07/28 09:37:29;;;;;;;3.28;0.70;;;21.30;99.90;;;;;;4864082;29;47610;-75
2022/07/28 09:39:59;;;;;;;0.80;0.43;;;21.00;99.90;;;;;;4870360;29;37629;-77
2022/07/28 09:42:25;;;;;;;2.85;0.52;;;20.50;99.90;;;;;;4866141;29;39859;-78
2022/07/28 09:45:06;;;;;;;2.22;0.60;;;20.60;99.90;;;;;;4851801;29;38086;-75
2022/07/28 09:47:33;;;;;;;3.47;0.70;;;20.60;99.90;;;;;;4857136;29;49013;-76
2022/07/28 09:50:00;;;;;;;1.90;0.63;;;20.80;99.90;;;;;;4849771;29;37511;-75
2022/07/28 09:52:29;;;;;;;2.20;0.63;;;21.30;99.90;;;;;;4866661;29;39431;-75
2022/07/28 09:55:03;;;;;;;2.65;0.60;;;21.50;99.90;;;;;;4847544;29;38058;-75
2022/07/28 09:57:30;;;;;;;2.15;0.60;;;21.80;99.90;;;;;;4850063;29;47115;-76
2022/07/28 09:59:56;;;;;;;3.33;0.55;;;22.20;99.90;;;;;;4852003;29;36387;-75
2022/07/28 10:02:30;;;;;;;1.70;0.63;;;22.20;99.90;;;;;;4863317;29;39752;-75
2022/07/28 10:05:01;;;;;;;2.60;0.63;;;22.20;99.90;;;;;;4852519;29;39241;-74
2022/07/28 10:07:28;;;;;;;1.63;0.60;;;22.00;99.90;;;;;;4866825;29;38286;-78
2022/07/28 10:10:10;;;;;;;2.45;0.75;;;22.00;99.90;;;;;;4847749;29;36020;-78
2022/07/28 10:12:40;;;;;;;2.13;0.67;;;22.30;99.90;;;;;;4847960;29;47380;-77
2022/07/28 10:18:00;;;;;;;2.42;0.70;;;23.00;99.90;;;;;;4859139;29;39096;-79
2022/07/28 10:20:27;;;;;;;1.75;0.57;;;23.40;99.90;;;;;;4855635;29;36330;-79
2022/07/28 10:23:01;;;;;;;2.65;0.70;;;23.30;99.90;;;;;;4847005;29;39778;-78
2022/07/28 10:25:31;;;;;;;1.35;0.60;;;23.30;99.90;;;;;;4850287;29;47344;-79
2022/07/28 10:27:59;;;;;;;2.55;0.80;;;23.20;99.90;;;;;;4848810;29;37475;-79
2022/07/28 10:30:32;;;;;;;1.83;0.80;;;23.00;99.90;;;;;;4865939;29;37437;-77
2022/07/28 10:33:01;;;;;;;2.17;0.63;;;23.20;99.90;;;;;;4855660;29;38993;-80
2022/07/28 10:35:28;;;;;;;1.15;0.60;;;23.10;99.90;;;;;;4847808;29;47155;-78
2022/07/28 10:37:58;;;;;;;1.92;0.60;;;23.10;99.90;;;;;;4848071;29;37380;-77
2022/07/28 10:40:28;;;;;;;3.72;0.73;;;23.00;99.90;;;;;;4838579;29;36530;-79
2022/07/28 10:42:56;;;;;;;1.33;0.40;;;23.00;99.90;;;;;;4838536;29;38495;-79
2022/07/28 10:45:23;;;;;;;3.42;0.73;;;23.10;99.90;;;;;;4859739;29;37664;-79
2022/07/28 10:47:49;;;;;;;3.97;0.60;;;23.20;99.90;;;;;;4846059;29;38961;-78
2022/07/28 10:50:17;;;;;;;2.58;0.60;;;23.60;99.90;;;;;;4869565;29;38008;-78
2022/07/28 10:52:45;;;;;;;4.35;0.73;;;24.00;99.90;;;;;;4862867;29;40229;-75
2022/07/28 10:55:30;;;;;;;1.02;0.50;;;23.60;99.90;;;;;;4861891;29;40373;-80
2022/07/28 10:58:02;;;;;;;4.15;0.63;;;23.30;99.90;;;;;;4860054;29;39037;-76
2022/07/28 11:00:32;;;;;;;1.75;0.70;;;23.80;99.90;;;;;;4859343;29;50070;-76
2022/07/28 11:02:59;;;;;;;3.58;0.60;;;24.50;99.90;;;;;;4858484;29;38942;-79
2022/07/28 11:05:38;;;;;;;0.52;0.30;;;24.60;99.90;;;;;;4845814;29;38239;-79
2022/07/28 11:08:16;;;;;;;0.80;0.52;;;25.00;99.90;;;;;;4841500;29;38345;-78
2022/07/28 11:10:50;;;;;;;3.38;0.55;;;25.00;99.90;;;;;;4866758;29;37869;-77
2022/07/28 11:13:31;;;;;;;0.77;0.28;;;24.80;99.90;;;;;;4860792;29;39945;-79
2022/07/28 11:16:20;;;;;;;0.55;0.40;;;24.50;99.90;;;;;;4864259;29;38686;-75
2022/07/28 11:19:08;;;;;;;2.35;0.50;;;24.40;99.90;;;;;;4867559;29;48845;-77
2022/07/28 11:21:34;;;;;;;2.17;0.70;;;24.30;99.90;;;;;;4847454;29;47291;-76
2022/07/28 11:24:00;;;;;;;1.23;0.47;;;24.30;99.90;;;;;;4842920;29;38988;-76
2022/07/28 11:26:34;;;;;;;0.70;0.28;;;24.20;99.90;;;;;;4842366;29;39437;-75
2022/07/28 11:29:04;;;;;;;2.90;0.43;;;24.50;99.90;;;;;;4841499;29;38486;-76
2022/07/28 11:31:45;;;;;;;1.75;0.63;;;24.70;99.90;;;;;;4836513;29;47040;-77
2022/07/28 11:34:17;;;;;;;1.13;0.40;;;24.90;99.90;;;;;;4822681;29;38625;-76
2022/07/28 11:37:03;;;;;;;1.38;0.50;;;24.60;99.90;;;;;;4844765;29;41429;-77
2022/07/28 11:39:34;;;;;;;1.27;0.40;;;24.50;99.90;;;;;;4848680;29;48842;-77
2022/07/28 11:42:29;;;;;;;1.17;0.50;;;24.60;99.90;;;;;;4830527;29;35808;-77
2022/07/28 11:45:16;;;;;;;0.85;0.40;;;24.30;99.90;;;;;;4826842;29;47220;-79
2022/07/28 11:47:42;;;;;;;0.68;0.30;;;24.10;99.90;;;;;;4825380;29;47609;-75
2022/07/28 11:50:16;;;;;;;0.90;0.40;;;24.50;99.90;;;;;;4832982;29;37136;-78
2022/07/28 11:52:53;;;;;;;2.00;0.50;;;24.80;99.90;;;;;;4875764;29;37488;-77
2022/07/28 11:55:20;;;;;;;0.70;0.40;;;25.00;99.90;;;;;;4850499;29;38907;-77
2022/07/28 11:57:46;;;;;;;1.20;0.50;;;25.50;99.90;;;;;;4838990;29;37890;-77
2022/07/28 12:00:20;;;;;;;2.35;0.52;;;25.40;99.90;;;;;;4849693;29;38767;-74
2022/07/28 12:02:46;;;;;;;1.33;0.47;;;25.70;99.90;;;;;;4838930;29;36694;-77
2022/07/28 12:05:14;;;;;;;2.63;0.50;;;25.60;99.90;;;;;;4833935;29;37895;-76
2022/07/28 12:07:48;;;;;;;2.53;0.60;;;25.50;99.90;;;;;;4839132;29;38676;-75
2022/07/28 12:10:28;;;;;;;0.93;0.50;;;25.40;99.90;;;;;;4836181;29;38852;-75
2022/07/28 12:12:57;;;;;;;2.97;0.50;;;25.50;99.90;;;;;;4852625;29;37175;-76
2022/07/28 12:15:24;;;;;;;2.63;0.73;;;24.90;99.90;;;;;;4834772;29;37923;-75
2022/07/28 12:17:50;;;;;;;1.13;0.30;;;24.40;99.90;;;;;;4836301;29;39446;-75
2022/07/28 12:20:17;;;;;;;3.53;0.43;;;24.30;99.90;;;;;;4853956;29;38747;-75
2022/07/28 12:23:02;;;;;;;0.95;0.50;;;24.30;99.90;;;;;;4835441;29;39315;-76
2022/07/28 12:25:28;;;;;;;2.20;0.63;;;24.40;99.90;;;;;;4849315;29;48726;-77
2022/07/28 12:27:55;;;;;;;2.30;0.57;;;24.30;99.90;;;;;;4839747;29;37938;-78
2022/07/28 12:30:26;;;;;;;4.57;0.50;;;24.40;99.90;;;;;;4830142;29;37720;-81
2022/07/28 12:32:53;;;;;;;0.52;0.40;;;24.50;99.90;;;;;;4868933;29;37678;-81
2022/07/28 12:35:21;;;;;;;2.22;0.50;;;24.10;99.90;;;;;;4859852;29;37545;-81
2022/07/28 12:37:49;;;;;;;2.95;0.50;;;24.30;99.90;;;;;;4872848;29;37964;-79
2022/07/28 12:40:17;;;;;;;1.58;0.50;;;24.70;99.90;;;;;;4852520;29;37539;-81
2022/07/28 12:42:45;;;;;;;1.05;0.50;;;24.50;99.90;;;;;;4846912;29;37842;-78
2022/07/28 12:45:12;;;;;;;2.00;0.68;;;24.40;99.90;;;;;;4864101;29;41951;-79
2022/07/28 12:47:38;;;;;;;1.95;0.57;;;24.70;99.90;;;;;;4849384;29;39142;-77
2022/07/28 12:50:18;;;;;;;2.50;0.50;;;24.40;99.90;;;;;;4870055;29;38110;-77
2022/07/28 12:53:08;;;;;;;4.57;0.55;;;24.10;99.90;;;;;;4851713;29;36644;-76
2022/07/28 12:55:34;;;;;;;2.97;0.70;;;24.10;99.90;;;;;;4870318;29;48343;-81
2022/07/28 12:58:01;;;;;;;1.55;0.45;;;24.10;99.90;;;;;;4871104;29;40268;-78
2022/07/28 13:00:47;;;;;;;4.88;0.50;;;23.90;99.90;;;;;;4848346;29;47156;-78
2022/07/28 13:03:23;;;;;;;1.05;0.30;;;23.70;99.90;;;;;;4851415;29;37741;-77